• Join FlightAware (Why Join?)
  • Login
  • US Flag 
03:16PM EDT


 

Airport Tracker/Info


-or-


 

Live Flight TrackerFlight Track Log ✈ N5FT ✈ 23-Aug-2013 ✈ KHOU - KHQZ

Flight Track Log - Related Links

Times and Time Zones

All times are in EDT time to prevent confusion due to time zone crossing. See the N5FT flight status page for this flight to view local times or setup timezone preferences in your user account.

Time Position Orientation Groundspeed Altitude Reporting Facility
EDT Latitude Longitude Course Direction KTS MPH feet Rate Location/Type
08:16PM 29.6386 -95.2792 150° Southeast 95 109 500  Level Houston Center
08:17PM 29.6142 -95.2628 150° Southeast 89 102 1,500 780 Climbing Houston Center
08:18PM 29.6022 -95.2539 147° Southeast 99 114 1,900 660 Climbing Houston Center
08:19PM 29.5764 -95.2406 156° South 101 116 2,600 540 Climbing Houston Center
08:20PM 29.5519 -95.2225 147° Southeast 120 138 3,100 180 Climbing Houston Center
08:21PM 29.5683 -95.1747 68° East 135 155 3,000 -60 Descending Houston Center
08:22PM 29.5811 -95.1339 70° East 138 159 3,000  Level Houston Center
08:23PM 29.5953 -95.0936 68° East 139 160 3,000  Level Houston Center
08:24PM 29.6261 -95.0636 40° Northeast 147 169 3,100  Climbing Houston Center
08:25PM 29.6617 -95.0422 28° Northeast 149 171 3,100 480 Level Houston Center
08:26PM 29.7033 -95.0303 14° North 132 152 4,100 480 Climbing Houston Center
08:27PM 29.7386 -95.0217 12° North 128 147 4,100  Level Houston Center
08:28PM 29.7772 -95.0117 13° North 139 160 4,100  Level Houston Center
08:29PM 29.8161 -95.0008 14° North 144 166 4,100  Level Houston Center
08:30PM 29.8550 -94.9897 14° North 145 167 4,100  Level Houston Center
08:31PM 29.8961 -94.9847 North 148 170 4,100  Level Houston Center
08:32PM 29.9444 -94.9825 North 146 168 4,100  Level Houston Center
08:33PM 29.9850 -94.9822 360° North 146 168 4,100  Level Houston Center
08:34PM 30.0264 -94.9789 North 149 171 4,100  Level Houston Center
08:35PM 30.0683 -94.9769 North 150 173 4,100  Level Houston Center
08:36PM 30.1100 -94.9744 North 149 171 4,100  Level Houston Center
08:37PM 30.1494 -94.9797 353° North 145 167 4,100 120 Level Houston Center
08:38PM 30.2019 -95.0122 332° Northwest 145 167 4,400 480 Climbing Houston Center
08:39PM 30.2261 -95.0242 337° Northwest 126 145 5,100 480 Climbing Houston Center
08:40PM 30.2583 -95.0425 334° Northwest 129 148 5,300 480 Climbing Houston Center
08:41PM 30.2864 -95.0594 332° Northwest 116 133 6,100 600 Climbing Houston Center
08:42PM 30.3175 -95.0772 334° Northwest 121 139 6,600 540 Climbing Houston Center
08:43PM 30.3475 -95.0953 333° Northwest 123 142 7,300 600 Climbing Houston Center
08:44PM 30.3750 -95.1108 334° Northwest 113 130 7,900 300 Climbing Houston Center
08:46PM 30.4214 -95.1375 334° Northwest 150 173 8,100 60 Climbing Houston Center
08:46PM 30.4492 -95.1531 334° Northwest 145 167 8,100  Level Houston Center
08:47PM 30.4878 -95.1769 332° Northwest 154 177 8,100  Level Houston Center
08:48PM 30.5264 -95.1994 333° Northwest 155 178 8,100  Level Houston Center
08:49PM 30.5647 -95.2211 334° Northwest 154 177 8,100  Level Houston Center
08:51PM 30.6106 -95.2489 332° Northwest 153 176 8,100  Level Houston Center
08:52PM 30.6500 -95.2711 334° Northwest 155 178 8,100  Level Houston Center
08:53PM 30.6897 -95.2950 333° Northwest 159 183 8,100  Level Houston Center
08:54PM 30.7300 -95.3178 334° Northwest 160 184 8,100  Level Houston Center
08:55PM 30.7678 -95.3394 334° Northwest 155 178 8,100  Level Houston Center
08:56PM 30.8075 -95.3628 333° Northwest 157 181 8,100  Level Houston Center
08:57PM 30.8469 -95.3872 332° Northwest 159 183 8,100  Level Houston Center
08:58PM 30.8878 -95.4008 344° North 153 176 8,100  Level Houston Center
08:59PM 30.9386 -95.4175 344° North 155 178 8,100  Level Houston Center
09:00PM 30.9806 -95.4336 342° North 157 181 8,100  Level Houston Center
09:01PM 31.0208 -95.4492 342° North 153 176 8,100  Level Houston Center
09:02PM 31.0608 -95.4675 339° North 153 176 8,100  Level Houston Center
09:03PM 31.1011 -95.4842 340° North 153 176 8,100  Level Houston Center
09:04PM 31.1419 -95.5031 338° Northwest 155 178 8,100 240 Level Houston Center
09:05PM 31.1803 -95.5194 340° North 151 174 8,600 480 Climbing Houston Center
09:06PM 31.2131 -95.5333 340° North 136 157 9,100 480 Climbing Houston Center
09:07PM 31.2436 -95.5525 332° Northwest 128 147 9,600 480 Climbing Houston Center
09:08PM 31.2747 -95.5694 335° Northwest 124 143 10,100 240 Climbing Houston Center
09:09PM 31.3217 -95.5833 346° North 138 159 10,100  Level Houston Center
09:10PM 31.3639 -95.5942 348° North 149 171 10,100  Level Houston Center
09:11PM 31.4042 -95.6106 341° North 152 175 10,100  Level Houston Center
09:12PM 31.4431 -95.6283 339° North 150 173 10,100 -60 Level Houston Center
09:13PM 31.4808 -95.6497 334° Northwest 151 174 10,000 -60 Descending Houston Center
09:14PM 31.5181 -95.6706 334° Northwest 149 171 10,000  Level Houston Center
09:15PM 31.5553 -95.6925 333° Northwest 150 173 10,100  Climbing Houston Center
09:16PM 31.5942 -95.7136 335° Northwest 153 176 10,100  Level Houston Center
09:17PM 31.6383 -95.7247 348° North 154 177 10,100  Level Fort Worth Center
09:18PM 31.6761 -95.7267 357° North 144 166 10,100 -60 Level Fort Worth Center
09:19PM 31.7136 -95.7283 358° North 144 166 10,000  Descending Fort Worth Center
09:20PM 31.7453 -95.7569 322° Northwest 139 160 10,100  Climbing Fort Worth Center
09:21PM 31.7769 -95.7883 320° Northwest 145 167 10,100  Level Fort Worth Center
09:22PM 31.8108 -95.8194 322° Northwest 150 173 10,100  Level Fort Worth Center
09:23PM 31.8467 -95.8481 326° Northwest 156 180 10,100  Level Fort Worth Center
09:24PM 31.8761 -95.8744 323° Northwest 156 180 10,100  Level Fort Worth Center
09:25PM 31.9100 -95.9058 322° Northwest 156 180 10,100  Level Fort Worth Center
09:26PM 31.9458 -95.9369 324° Northwest 156 180 10,100 -180 Level Fort Worth Center
09:27PM 31.9839 -95.9683 325° Northwest 161 185 9,800 -360 Descending Fort Worth Center
09:28PM 32.0175 -95.9997 322° Northwest 161 185 9,500 -360 Descending Fort Worth Center
09:29PM 32.0533 -96.0261 328° Northwest 156 180 9,100 -480 Descending Fort Worth Center
09:30PM 32.0872 -96.0597 320° Northwest 156 180 8,600 -540 Descending Fort Worth Center
09:31PM 32.1231 -96.0911 323° Northwest 156 180 8,100 -540 Descending Fort Worth Center
09:32PM 32.1567 -96.1225 322° Northwest 156 180 7,600 -420 Descending Fort Worth Center
09:33PM 32.1944 -96.1514 327° Northwest 161 185 7,300 -420 Descending Fort Worth Center
09:34PM 32.2283 -96.1806 324° Northwest 161 185 6,800 -600 Descending Fort Worth Center
09:35PM 32.2639 -96.2119 323° Northwest 156 180 6,200 -540 Descending Fort Worth Center
09:36PM 32.2978 -96.2436 322° Northwest 156 180 5,800 -480 Descending Fort Worth Center
09:37PM 32.3314 -96.2725 324° Northwest 156 180 5,300 -480 Descending Fort Worth Center
09:38PM 32.3631 -96.3042 320° Northwest 156 180 4,900 -600 Descending Fort Worth Center
09:39PM 32.3986 -96.3333 325° Northwest 156 180 4,100 -480 Descending Fort Worth Center
09:40PM 32.4303 -96.3625 322° Northwest 156 180 4,000 -60 Descending Fort Worth Center
09:41PM 32.4639 -96.3842 331° Northwest 144 166 4,000  Level Fort Worth Center
09:42PM 32.4994 -96.4036 335° Northwest 139 160 4,000  Level Fort Worth Center
09:43PM 32.5372 -96.4203 340° North 146 168 4,100 -60 Climbing Fort Worth Center
09:44PM 32.5811 -96.4444 335° Northwest 157 181 3,900 -540 Descending Fort Worth Center
09:45PM 32.6169 -96.4689 330° Northwest 157 181 3,100 -540 Descending Fort Worth Center
09:46PM 32.6547 -96.4981 327° Northwest 163 188 2,900 -240 Descending Fort Worth Center
09:50PM 32.7112 -96.5093 344° North  Level FlightAware Approximate
09:57PM 32.7333 -96.5167 344° North  Level FlightAware Approximate
09:58PM 32.7470 -96.5304 344° North  Level Estimated
09:59PM 32.7470 -96.5304 344° North  Level Estimated
10:00PM 32.7470 -96.5304 344° North  Level Estimated
10:01PM 32.7470 -96.5304 344° North  Level Estimated
10:02PM 32.7470 -96.5304 344° North  Level Estimated
10:03PM 32.7470 -96.5304 344° North  Level Estimated
10:04PM 32.7470 -96.5304 344° North  Level Estimated
10:05PM 32.7470 -96.5304 344° North  Level Estimated
10:06PM 32.7470 -96.5304 344° North  Level Estimated
10:07PM 32.7470 -96.5304 344° North  Level Estimated
10:08PM 32.7470 -96.5304 344° North  Level Estimated
10:09PM 32.7470 -96.5304 344° North  Level Estimated